La Mesa, CA (91943)

6:46 PM PDT on September 21, 2014 (GMT -0700)
Lake Murray Estates | Change Station
CLOSE
Current Station
Personal Weather Station
Location: La Mesa, CA
Elevation: 617 ft
Nearby Weather Stations

Elev 617 ft 32.78 °N, 117.02 °W | Updated 11 seconds ago

Clear
Clear
72.3 °F
Feels Like 71 °F
N
4.5
Wind Variable Wind from West
Gusts 7.4 mph

Today
High -- | Low -- °F
--% Chance of Precip.
Yesterday
High -- | Low -- °F
Precip. -- in
6:35 AM 6:45 PM
Waning Crescent, 4% visible
Pressure 29.94 in
Visibility 10.0 miles
Clouds Clear
Heat Index 71 °F
Dew Point 67 °F
Humidity 84%
Rainfall 0.00 in
Snow Depth 0 in , 0 in , 0 in
UV 0 out of 12
Pollen 5.60 out of 12
Ozone Good
PM2.5 Good
Flu Activity Not available.
METAR KSEE 220135Z AUTO 28011KT 10SM CLR 23/15 A2994 RMK AO2

More Conditions Fewer Conditions

Pressure 29.94 in
Visibility 10.0 miles
Clouds Clear
Heat Index 71 °F
Dew Point 67 °F
Humidity 84%
Rainfall 0.00 in
Snow Depth 0 in , 0 in , 0 in
UV 0 out of 12
Pollen 5.60 out of 12
Ozone Good
PM2.5 Good
Flu Activity Not available.
METAR KSEE 220135Z AUTO 28011KT 10SM CLR 23/15 A2994 RMK AO2

More Conditions Fewer Conditions

10-Day Weather Forecast

Almanac

Astronomy

Sep. 21, 2014 Rise Set
Actual Time 6:35 AM PDT 6:45 PM PDT
Civil Twilight 6:11 AM PDT 7:10 PM PDT
Nautical Twilight 5:42 AM PDT 7:39 PM PDT
Astronomical Twilight 5:13 AM PDT 8:08 PM PDT
Moon 4:19 AM PDT (9/21) 5:19 PM PDT (9/21)
Length of Visible Light 12h 59m
Length of Day
12h 10m
Tomorrow will be 1m 59s shorter.
Waning Crescent, 4% of the Moon is Illuminated
Today
Waning Crescent
Sep 24
New
Oct 1
First Quarter
Oct 8
Full
Oct 15
Last Quarter

Today's Extremes

State Highs State Lows

Community

WunderPhotos

Upload Photos

1,755,347 photos uploaded!

WunderBlogs® & News

Nearby

Air Quality

  Air Quality AQ Index Pollutant
Yesterday Good
PM2.5
Yesterday Good
OZONE
Current Good
PM2.5
Current Good
OZONE
Sunday Good
PM2.5
Sunday Good
OZONE
Monday Moderate
PM2.5
Monday Good
OZONE

Snow Depth

Station Depth Elevation
Forestdale Creek 0 in 8029 ft
Rubicon #2 0 in 7500 ft
Monitor Pass 0 in 8350 ft
Leavitt Meadows 1 in 7200 ft
Leavitt Lake 0 in 9400 ft

Earthquake Activity

City Distance Mag. Time & Date
Borrego Springs, California 42 miles 2.6 7:34 AM PDT
2014-09-21
Aguanga, California 49 miles 2.5 1:38 AM PDT
2014-09-19
Minimum magnitude displayed is 2.5.

Coastal Water Temperatures

Place Temperature
La Jolla, CA 73.0 °F
San Diego, CA 75.9 °F

Nearby Weather Stations